Stations météo

réclame
Mon MeteoGroup
Retie, Belgique (6464): Température de l'air & dewpoint: 14.07.2018 22:00:00 - 20.07.2018 22:00:00 (CEST)Retie, Belgique (6464): Vitesse du vent & gusts: 14.07.2018 22:00:00 - 20.07.2018 22:00:00 (CEST)Retie, Belgique (6464): Direction du vent: 14.07.2018 22:00:00 - 20.07.2018 22:00:00 (CEST)Retie, Belgique (6464): reduced air pressure: 14.07.2018 22:00:00 - 20.07.2018 22:00:00 (CEST)Retie, Belgique (6464): Ensoleillement: 14.07.2018 22:00:00 - 20.07.2018 22:00:00 (CEST)Retie, Belgique (6464): Quantités de précipitations: 14.07.2018 22:00:00 - 20.07.2018 22:00:00 (CEST)
Date & Time tt [°C] td [°C] ff [km/h] ff [knt] fx [km/h] fx [knt] dd ppp [hPa] sd [min] rr [mm]
20.07.2018 22:00:00 21,3 12,0 4 2 12 6 NNE 1012,6 0 0,0
20.07.2018 21:00:00 22,4 10,1 6 4 12 7 NNW 1012,3 0 0,0
20.07.2018 20:00:00 23,4 8,0 7 4 16 9 NW 1012,6 0 0,0
20.07.2018 19:00:00 24,5 8,5 9 5 19 10 NW 1012,7 0 0,0
20.07.2018 18:00:00 25,7 9,6 8 5 21 11 NW 1012,6 28 0,0
20.07.2018 17:00:00 27,1 8,3 9 5 21 11 NNW 1012,9 60 0,0
20.07.2018 16:00:00 26,8 9,6 8 5 26 14 N 1013,3 60 0,0
20.07.2018 15:00:00 27,3 8,3 7 4 15 8 NNW 1013,7 60 0,0
20.07.2018 14:00:00 27,0 8,2 11 6 23 12 N 1014,1 60 0,0
20.07.2018 13:00:00 26,5 8,3 6 4 21 11 NNW 1014,7 60 0,0
20.07.2018 12:00:00 24,8 8,9 7 4 18 10 NNW 1014,9 60 0,0
20.07.2018 11:00:00 - - - - - - - - - -
20.07.2018 10:00:00 - - - - - - - - - -
20.07.2018 09:00:00 18,0 14,1 6 3 8 5 NNW 1015,7 60 0,0
20.07.2018 08:00:00 14,5 12,8 4 2 6 4 NNW 1015,8 56 0,0
20.07.2018 07:00:00 10,2 9,4 4 2 5 3 N 1015,8 8 0,0
20.07.2018 06:00:00 9,1 8,4 0 0 2 1 N 1016,2 0 0,0
20.07.2018 05:00:00 9,4 8,6 0 0 1 0 N 1016,6 0 0,0
20.07.2018 04:00:00 9,9 8,6 0 0 5 3 N 1016,6 0 0,0
20.07.2018 03:00:00 10,8 9,4 0 0 3 1 N 1016,8 0 0,0
20.07.2018 02:00:00 11,5 9,3 0 0 3 2 N 1017,3 0 0,0
20.07.2018 01:00:00 13,3 10,0 0 0 5 3 N 1017,5 0 0,0
20.07.2018 00:00:00 15,0 9,1 0 0 5 3 N 1017,6 0 0,0
19.07.2018 23:00:00 17,6 8,2 4 2 10 5 NNW 1017,5 0 0,0
19.07.2018 22:00:00 20,8 7,6 5 3 17 9 N 1017,4 0 0,0
19.07.2018 21:00:00 22,9 8,9 8 5 22 12 NNW 1017,3 41 0,0
19.07.2018 20:00:00 25,4 11,6 7 4 14 8 NNW 1016,6 59 0,0
19.07.2018 19:00:00 26,5 11,5 6 3 18 10 N 1016,8 60 0,0
19.07.2018 18:00:00 27,3 11,9 9 5 22 12 N 1017,1 60 0,0
19.07.2018 17:00:00 26,4 11,8 7 4 - - NNW 1017,8 - -
19.07.2018 16:00:00 27,4 11,6 6 4 12 6 N 1018,0 40 0,0
19.07.2018 15:00:00 27,6 11,1 4 2 18 10 W 1018,1 - -
19.07.2018 14:00:00 27,1 11,0 7 4 12 7 N 1018,3 56 0,0
19.07.2018 13:00:00 26,7 11,2 9 5 16 9 W 1018,6 60 0,0
19.07.2018 12:00:00 24,9 11,6 6 3 12 7 WNW 1019,1 60 0,0
19.07.2018 11:00:00 23,5 13,0 6 4 16 9 NNW 1019,3 60 0,0
19.07.2018 10:00:00 21,6 14,5 7 4 14 8 NW 1019,2 60 0,0
19.07.2018 09:00:00 18,4 14,3 7 4 10 6 NW 1019,4 60 0,0
19.07.2018 08:00:00 15,2 12,8 0 0 4 2 N 1019,4 60 0,0
19.07.2018 07:00:00 10,9 10,0 4 2 5 3 SSW 1019,5 3 0,0
19.07.2018 06:00:00 9,9 9,1 0 0 4 2 N 1019,1 0 0,0
19.07.2018 05:00:00 10,4 9,4 0 0 4 2 N 1019,2 0 0,0
19.07.2018 04:00:00 10,9 9,3 0 0 3 1 N 1019,2 0 0,0
19.07.2018 03:00:00 12,0 9,9 0 0 3 2 N 1019,5 0 0,0
19.07.2018 02:00:00 13,8 11,3 0 0 6 4 N 1019,4 0 0,0
19.07.2018 01:00:00 14,5 10,4 0 0 9 5 N 1019,7 0 0,0
19.07.2018 00:00:00 16,6 10,5 4 2 9 5 NNW 1019,4 0 0,0
18.07.2018 23:00:00 18,8 11,7 5 3 14 8 NNW 1019,3 0 0,0
18.07.2018 22:00:00 20,8 11,9 5 3 18 10 N 1018,8 0 0,0
18.07.2018 21:00:00 22,7 12,3 8 4 21 11 NNW 1018,4 41 0,0
18.07.2018 20:00:00 25,1 10,1 7 4 13 7 NW 1018,0 59 0,0
18.07.2018 19:00:00 24,8 9,9 4 2 10 6 N 1017,9 20 0,0
18.07.2018 18:00:00 25,8 9,5 7 4 13 7 NW 1018,1 49 0,0
18.07.2018 17:00:00 26,4 9,2 5 3 13 7 W 1018,4 44 0,0
18.07.2018 16:00:00 26,2 9,1 6 3 18 10 SW 1018,6 60 0,0
18.07.2018 15:00:00 26,2 9,1 7 4 17 9 SW 1018,7 57 0,0
18.07.2018 14:00:00 25,6 9,1 7 4 15 8 WSW 1019,0 54 0,0
18.07.2018 13:00:00 23,8 10,0 7 4 16 9 W 1019,3 47 0,0
18.07.2018 12:00:00 23,1 10,0 6 3 16 9 SW 1019,2 56 0,0
18.07.2018 11:00:00 22,1 11,1 6 3 12 7 S 1019,5 60 0,0
18.07.2018 10:00:00 20,6 11,7 4 2 8 4 S 1019,6 60 0,0
18.07.2018 09:00:00 19,4 12,4 4 2 6 3 SSE 1019,6 60 0,0
18.07.2018 08:00:00 15,8 13,0 0 0 3 2 N 1019,4 60 0,0
18.07.2018 07:00:00 9,8 9,1 0 0 3 1 N 1019,3 25 0,0
18.07.2018 06:00:00 8,7 8,2 0 0 3 2 N 1019,1 0 0,0
18.07.2018 05:00:00 8,9 8,3 0 0 1 1 N 1019,2 0 0,0
18.07.2018 04:00:00 9,7 9,1 0 0 3 1 N 1019,2 0 0,0
18.07.2018 03:00:00 10,2 9,3 0 0 1 0 N 1019,2 0 0,0
18.07.2018 02:00:00 10,5 9,0 0 0 1 0 N 1019,1 0 0,0
18.07.2018 01:00:00 11,4 9,4 0 0 3 1 N 1019,1 0 0,0
18.07.2018 00:00:00 12,8 10,3 0 0 3 2 N 1018,7 0 0,0
17.07.2018 23:00:00 14,7 10,5 0 0 6 3 N 1018,3 0 0,0
17.07.2018 22:00:00 18,0 9,5 4 2 15 8 N 1018,1 0 0,0
17.07.2018 21:00:00 21,0 9,6 8 4 19 11 NNW 1017,4 41 0,0
17.07.2018 20:00:00 22,3 10,1 11 6 29 16 NW 1017,0 60 0,0
17.07.2018 19:00:00 23,7 10,4 13 7 36 19 NW 1016,8 60 0,0
17.07.2018 18:00:00 25,1 12,4 14 8 33 18 NW 1016,2 59 0,0
17.07.2018 17:00:00 26,6 11,6 13 7 31 17 W 1015,9 42 0,0
17.07.2018 16:00:00 26,6 11,3 11 6 31 17 WSW 1015,8 37 0,0
17.07.2018 15:00:00 27,0 13,1 13 7 29 15 WSW 1015,9 42 0,0
17.07.2018 14:00:00 26,4 13,4 11 6 25 14 WSW 1015,9 57 0,0
17.07.2018 13:00:00 26,0 14,1 10 5 23 13 WSW 1016,2 57 0,0
17.07.2018 12:00:00 25,3 14,5 10 5 22 12 WSW 1016,0 60 0,0
17.07.2018 11:00:00 23,4 13,4 10 6 20 11 W 1015,6 60 0,0
17.07.2018 10:00:00 22,4 12,3 8 4 21 11 W 1015,4 60 0,0
17.07.2018 09:00:00 20,8 11,8 7 4 16 8 WSW 1015,3 60 0,0
17.07.2018 08:00:00 18,9 13,4 7 4 13 7 SW 1014,8 56 0,0
17.07.2018 07:00:00 15,4 13,2 4 2 5 3 SW 1014,4 0 0,0
17.07.2018 06:00:00 16,2 14,3 0 0 6 3 N 1014,1 0 0,0
17.07.2018 05:00:00 16,2 14,3 4 2 4 2 E 1013,9 0 0,0
17.07.2018 04:00:00 16,8 13,8 0 0 9 5 N 1014,0 0 0,0
17.07.2018 03:00:00 18,5 14,3 5 3 11 6 SSW 1014,2 0 0,0
17.07.2018 02:00:00 19,2 12,8 0 0 10 6 N 1013,6 0 0,0
17.07.2018 01:00:00 20,0 14,1 5 3 9 5 N 1013,7 0 0,0
17.07.2018 00:00:00 20,2 13,7 5 3 10 5 SE 1013,3 0 0,0
16.07.2018 23:00:00 21,1 13,0 4 2 13 7 N 1013,3 0 0,0
16.07.2018 22:00:00 21,9 13,3 7 4 24 13 NW 1013,3 0 0,0
16.07.2018 21:00:00 23,3 12,7 11 6 32 18 W 1013,0 0 0,0
16.07.2018 20:00:00 27,7 10,1 4 2 12 7 NNE 1011,9 44 0,0
16.07.2018 19:00:00 29,3 10,0 5 3 16 9 NNE 1011,6 58 0,0
16.07.2018 18:00:00 29,7 9,6 8 5 21 11 NNE 1011,9 58 0,0
16.07.2018 17:00:00 30,0 8,3 9 5 22 12 S 1012,0 60 0,0
16.07.2018 16:00:00 30,7 8,5 4 2 13 7 W 1012,3 60 0,0
16.07.2018 15:00:00 29,2 8,9 5 3 11 6 E 1012,7 60 0,0
16.07.2018 14:00:00 29,3 7,5 4 2 15 8 N 1013,4 60 0,0
16.07.2018 13:00:00 28,8 8,0 5 3 16 8 NE 1013,7 60 0,0
16.07.2018 12:00:00 28,1 9,9 4 2 15 8 SE 1013,8 60 0,0
16.07.2018 11:00:00 26,8 10,8 6 3 14 8 E 1014,1 60 0,0
16.07.2018 10:00:00 25,3 12,6 4 2 6 4 ENE 1014,4 60 0,0
16.07.2018 09:00:00 21,8 13,4 4 2 5 3 NE 1014,6 60 0,0
16.07.2018 08:00:00 17,2 13,9 4 2 4 2 NE 1014,5 60 0,0
16.07.2018 07:00:00 11,5 10,4 0 0 3 1 N 1014,6 29 0,0
16.07.2018 06:00:00 10,7 9,8 0 0 3 1 N 1014,6 0 0,0
16.07.2018 05:00:00 11,1 10,1 0 0 4 2 N 1014,6 0 0,0
16.07.2018 04:00:00 11,5 10,4 0 0 3 2 N 1014,8 0 0,0
16.07.2018 03:00:00 12,3 11,0 0 0 3 2 N 1015,1 0 0,0
16.07.2018 02:00:00 12,9 10,6 0 0 4 2 N 1015,2 0 0,0
16.07.2018 01:00:00 14,5 11,7 0 0 4 2 N 1015,3 0 0,0
16.07.2018 00:00:00 15,7 12,8 4 2 4 2 NNE 1015,1 0 0,0
15.07.2018 23:00:00 17,3 12,9 0 0 4 2 N 1015,2 0 0,0
15.07.2018 22:00:00 20,6 13,1 0 0 4 2 N 1015,0 0 0,0
15.07.2018 21:00:00 25,3 10,2 4 2 13 7 NE 1014,4 31 0,0
15.07.2018 20:00:00 27,4 9,8 7 4 18 10 NNE 1014,3 52 0,0
15.07.2018 19:00:00 28,2 9,5 6 4 16 9 NNE 1014,4 57 0,0
15.07.2018 18:00:00 28,9 10,2 7 4 14 8 NE 1014,8 52 0,0
15.07.2018 17:00:00 29,0 9,6 6 3 18 10 NE 1015,2 57 0,0
15.07.2018 16:00:00 28,9 8,8 7 4 18 10 ESE 1015,4 60 0,0
15.07.2018 15:00:00 28,5 9,2 8 4 17 9 E 1016,1 60 0,0
15.07.2018 14:00:00 27,6 9,4 7 4 19 11 NE 1016,7 60 0,0
15.07.2018 13:00:00 26,6 10,7 5 3 17 9 ENE 1017,2 60 0,0
15.07.2018 12:00:00 25,8 11,5 9 5 18 10 ESE 1017,8 60 0,0
15.07.2018 11:00:00 24,5 11,6 7 4 17 9 ENE 1017,9 60 0,0
15.07.2018 10:00:00 23,0 13,5 4 2 9 5 ENE 1018,1 60 0,0
15.07.2018 09:00:00 19,7 13,4 4 2 5 3 N 1018,3 60 0,0
15.07.2018 08:00:00 18,1 13,6 0 0 5 3 N 1018,1 60 0,0
15.07.2018 07:00:00 14,0 11,7 4 2 11 6 ENE 1018,0 29 0,0
15.07.2018 06:00:00 12,1 11,0 4 2 11 6 NE 1018,1 0 0,0
15.07.2018 05:00:00 11,9 11,2 4 2 8 4 NNE 1018,5 0 0,0
15.07.2018 04:00:00 12,4 11,8 4 2 6 4 NNE 1018,5 0 0,0
15.07.2018 03:00:00 11,8 10,9 4 2 3 2 E 1018,7 0 0,0
15.07.2018 02:00:00 13,1 12,2 0 0 6 3 N 1019,0 0 0,0
15.07.2018 01:00:00 14,3 11,9 4 2 5 3 NNW 1019,2 0 0,0
15.07.2018 00:00:00 15,8 11,6 4 2 4 2 N 1018,9 0 0,0
14.07.2018 23:00:00 17,3 10,9 4 2 6 3 NNW 1018,8 0 0,0
14.07.2018 22:00:00 20,7 9,9 4 2 12 7 N 1018,5 0 0,0

tt = Température de l'air
td = dewpoint
ff = Vitesse du vent
fx = gusts
dd = Direction du vent
ppp = reduced air pressure
sd = Ensoleillement
rr = Quantités de précipitations

stations d'obs. à proximité